Time;durP1;ratioP1;P1;durP2;ratioP2;P2;SDS_P1;SDS_P2;PMS_P1;PMS_P2;Temp;Humidity;BMP_temperature;BMP_pressure;BME280_temperature;BME280_humidity;BME280_pressure;Samples;Min_cycle;Max_cycle;Signal;HPM_P1;HPM_P2
2024/01/02 00:01:33;;;;;;;8.32;5.53;;;;;;;;;;5018443;28;20025;-54
2024/01/02 00:03:58;;;;;;;9.25;6.18;;;;;;;;;;5019707;28;20054;-55
2024/01/02 00:06:24;;;;;;;9.88;6.07;;;;;;;;;;5019043;28;20493;-53
2024/01/02 00:08:49;;;;;;;10.35;5.90;;;;;;;;;;5019452;28;20032;-55
2024/01/02 00:11:14;;;;;;;11.50;7.10;;;;;;;;;;5017517;28;20053;-53
2024/01/02 00:13:41;;;;;;;11.57;6.60;;;;;;;;;;5018291;28;20056;-55
2024/01/02 00:16:06;;;;;;;8.98;5.80;;;;;;;;;;5018952;28;20037;-56
2024/01/02 00:18:31;;;;;;;9.18;6.18;;;;;;;;;;5018010;28;20824;-57
2024/01/02 00:20:57;;;;;;;9.73;5.95;;;;;;;;;;5026116;28;20013;-54
2024/01/02 00:23:22;;;;;;;8.80;5.95;;;;;;;;;;5020703;28;20476;-57
2024/01/02 00:25:47;;;;;;;12.88;6.20;;;;;;;;;;5018530;28;20041;-54
2024/01/02 00:28:13;;;;;;;11.50;6.70;;;;;;;;;;5030707;28;20041;-56
2024/01/02 00:30:39;;;;;;;9.63;6.22;;;;;;;;;;5021461;28;20055;-54
2024/01/02 00:33:05;;;;;;;10.40;6.13;;;;;;;;;;5017990;28;20041;-54
2024/01/02 00:35:30;;;;;;;12.45;6.95;;;;;;;;;;5020044;28;20022;-57
2024/01/02 00:37:56;;;;;;;13.25;7.00;;;;;;;;;;5039297;28;20501;-53
2024/01/02 00:40:21;;;;;;;11.85;7.25;;;;;;;;;;5017552;28;20257;-55
2024/01/02 00:42:46;;;;;;;12.63;7.32;;;;;;;;;;5017030;28;20778;-54
2024/01/02 00:45:11;;;;;;;11.63;7.38;;;;;;;;;;5019808;28;20110;-56
2024/01/02 00:47:37;;;;;;;15.15;7.88;;;;;;;;;;5020240;28;20040;-52
2024/01/02 00:50:03;;;;;;;17.27;7.65;;;;;;;;;;5019559;28;20033;-54
2024/01/02 00:52:28;;;;;;;13.50;7.97;;;;;;;;;;4999228;28;20533;-56
2024/01/02 00:54:54;;;;;;;13.00;6.95;;;;;;;;;;5017939;28;20404;-55
2024/01/02 00:57:19;;;;;;;13.75;7.45;;;;;;;;;;5017085;28;20029;-54
2024/01/02 00:59:44;;;;;;;14.93;7.43;;;;;;;;;;5020836;28;20025;-51
2024/01/02 01:02:10;;;;;;;16.58;8.02;;;;;;;;;;5018173;28;20029;-56
2024/01/02 01:04:35;;;;;;;23.52;8.88;;;;;;;;;;5016790;28;20879;-56
2024/01/02 01:07:00;;;;;;;22.92;9.88;;;;;;;;;;5018688;28;20044;-57
2024/01/02 01:09:26;;;;;;;16.85;9.00;;;;;;;;;;5017729;28;20053;-57
2024/01/02 01:11:51;;;;;;;18.27;8.77;;;;;;;;;;5017415;28;20127;-57
2024/01/02 01:14:16;;;;;;;19.77;8.68;;;;;;;;;;5019593;28;20037;-55
2024/01/02 01:16:42;;;;;;;22.77;10.45;;;;;;;;;;5021102;28;20114;-55
2024/01/02 01:19:07;;;;;;;22.83;9.45;;;;;;;;;;5022367;28;20564;-55
2024/01/02 01:21:32;;;;;;;17.67;8.88;;;;;;;;;;5027309;28;20041;-57
2024/01/02 01:23:57;;;;;;;12.65;7.00;;;;;;;;;;5022851;28;20031;-53
2024/01/02 01:29:07;;;;;;;13.93;7.15;;;;;;;;;;5023633;28;20082;-53
2024/01/02 01:31:32;;;;;;;13.23;7.60;;;;;;;;;;5022119;28;20061;-55
2024/01/02 01:33:57;;;;;;;10.85;6.38;;;;;;;;;;5023630;28;20036;-54
2024/01/02 01:36:22;;;;;;;11.55;5.85;;;;;;;;;;5022176;28;20096;-51
2024/01/02 01:38:48;;;;;;;11.15;6.90;;;;;;;;;;5020857;28;20022;-54
2024/01/02 01:41:13;;;;;;;10.10;6.40;;;;;;;;;;5019849;28;20029;-53
2024/01/02 01:43:38;;;;;;;11.65;6.38;;;;;;;;;;5021248;28;20041;-54
2024/01/02 01:46:05;;;;;;;10.32;6.30;;;;;;;;;;5027240;28;20334;-56
2024/01/02 01:48:30;;;;;;;10.30;7.07;;;;;;;;;;5022520;28;20029;-55
2024/01/02 01:50:56;;;;;;;10.70;6.03;;;;;;;;;;5023886;28;20582;-54
2024/01/02 01:53:21;;;;;;;11.80;6.75;;;;;;;;;;5018526;28;20044;-54
2024/01/02 01:55:47;;;;;;;10.75;7.20;;;;;;;;;;5020862;28;20533;-53
2024/01/02 01:58:13;;;;;;;13.35;7.55;;;;;;;;;;5019769;28;20449;-56
2024/01/02 02:00:38;;;;;;;10.48;6.65;;;;;;;;;;5023289;28;20025;-52
2024/01/02 02:03:04;;;;;;;14.25;7.00;;;;;;;;;;5020463;28;20112;-53
2024/01/02 02:05:30;;;;;;;12.07;7.30;;;;;;;;;;5021203;28;20104;-52
2024/01/02 02:07:55;;;;;;;10.10;6.55;;;;;;;;;;5020011;28;20904;-53
2024/01/02 02:10:20;;;;;;;10.35;6.28;;;;;;;;;;5020735;28;20206;-56
2024/01/02 02:12:46;;;;;;;11.82;6.82;;;;;;;;;;5018603;28;20313;-52
2024/01/02 02:15:11;;;;;;;10.80;6.60;;;;;;;;;;5024078;28;20032;-57
2024/01/02 02:17:36;;;;;;;8.98;6.20;;;;;;;;;;5019888;28;20079;-54
2024/01/02 02:20:02;;;;;;;11.15;7.00;;;;;;;;;;5028444;28;20036;-56
2024/01/02 02:22:34;;;;;;;9.43;6.28;;;;;;;;;;5019817;28;20049;-57
2024/01/02 02:25:01;;;;;;;10.82;6.10;;;;;;;;;;5020510;28;20057;-55
2024/01/02 02:27:27;;;;;;;9.35;5.68;;;;;;;;;;5018301;28;20032;-56
2024/01/02 02:29:52;;;;;;;8.88;6.20;;;;;;;;;;5020254;28;20039;-52
2024/01/02 02:32:17;;;;;;;9.02;6.20;;;;;;;;;;5019867;28;20037;-55
2024/01/02 02:34:43;;;;;;;7.80;5.72;;;;;;;;;;5025158;28;20041;-54
2024/01/02 02:37:08;;;;;;;12.85;6.55;;;;;;;;;;5026164;28;20036;-54
2024/01/02 02:39:33;;;;;;;7.90;5.53;;;;;;;;;;5019489;28;20030;-54
2024/01/02 02:41:58;;;;;;;9.50;5.85;;;;;;;;;;5017319;28;20706;-55
2024/01/02 02:44:24;;;;;;;9.27;5.70;;;;;;;;;;5020881;28;20029;-53
2024/01/02 02:46:49;;;;;;;8.95;5.65;;;;;;;;;;5024978;28;20027;-55
2024/01/02 02:49:14;;;;;;;9.68;6.30;;;;;;;;;;5021530;28;20429;-56
2024/01/02 02:51:39;;;;;;;9.85;6.40;;;;;;;;;;5020343;28;20461;-54
2024/01/02 02:54:05;;;;;;;10.13;6.13;;;;;;;;;;5020471;28;20540;-56
2024/01/02 02:56:30;;;;;;;9.63;5.95;;;;;;;;;;5017672;28;20082;-56
2024/01/02 02:58:55;;;;;;;11.45;6.15;;;;;;;;;;5020510;28;20106;-57
2024/01/02 03:01:22;;;;;;;8.73;5.25;;;;;;;;;;5018482;28;20056;-54
2024/01/02 03:03:47;;;;;;;9.63;6.32;;;;;;;;;;5019042;28;20444;-57
2024/01/02 03:06:12;;;;;;;11.52;6.43;;;;;;;;;;5018522;28;20037;-54
2024/01/02 03:08:38;;;;;;;11.38;6.57;;;;;;;;;;5019085;28;20947;-52
2024/01/02 03:11:03;;;;;;;11.77;6.07;;;;;;;;;;5019923;28;20052;-56
2024/01/02 03:13:29;;;;;;;12.32;6.38;;;;;;;;;;5019322;28;20046;-53
2024/01/02 03:15:54;;;;;;;10.20;6.68;;;;;;;;;;5004721;28;20068;-55
2024/01/02 03:18:20;;;;;;;9.95;5.93;;;;;;;;;;5018866;28;20037;-57
2024/01/02 03:20:46;;;;;;;11.57;6.50;;;;;;;;;;5023414;28;20325;-53
2024/01/02 03:23:11;;;;;;;9.63;6.20;;;;;;;;;;5019067;28;20041;-55
2024/01/02 03:25:37;;;;;;;13.00;6.53;;;;;;;;;;5020167;28;20052;-56
2024/01/02 03:28:03;;;;;;;12.55;6.85;;;;;;;;;;5017489;28;20462;-57
2024/01/02 03:30:28;;;;;;;11.55;7.15;;;;;;;;;;5018865;28;20083;-54
2024/01/02 03:32:53;;;;;;;13.20;6.50;;;;;;;;;;5018413;28;20072;-53
2024/01/02 03:35:19;;;;;;;14.00;6.45;;;;;;;;;;5019007;28;20033;-53
2024/01/02 03:37:44;;;;;;;15.30;6.90;;;;;;;;;;5017349;28;20045;-54
2024/01/02 03:40:10;;;;;;;9.80;6.18;;;;;;;;;;5019444;28;21082;-56
2024/01/02 03:42:35;;;;;;;10.90;6.90;;;;;;;;;;5017109;28;20034;-55
2024/01/02 03:45:00;;;;;;;11.32;6.50;;;;;;;;;;5021210;28;20414;-51
2024/01/02 03:47:26;;;;;;;11.77;6.20;;;;;;;;;;5023639;28;22686;-52
2024/01/02 03:49:51;;;;;;;11.00;6.15;;;;;;;;;;5019038;28;20037;-53
2024/01/02 03:52:16;;;;;;;10.85;5.78;;;;;;;;;;5017856;28;20043;-55
2024/01/02 03:54:41;;;;;;;8.95;5.90;;;;;;;;;;5018161;28;20532;-54
2024/01/02 03:57:07;;;;;;;15.50;7.50;;;;;;;;;;5017726;28;20037;-55
2024/01/02 03:59:34;;;;;;;11.43;6.25;;;;;;;;;;5020438;28;20411;-57
2024/01/02 04:02:00;;;;;;;9.27;5.93;;;;;;;;;;5017759;28;20045;-54
2024/01/02 04:04:25;;;;;;;10.18;6.20;;;;;;;;;;5021194;28;21692;-55
2024/01/02 04:06:50;;;;;;;12.15;6.63;;;;;;;;;;5015399;28;20122;-55
2024/01/02 04:09:15;;;;;;;12.00;6.82;;;;;;;;;;5018009;28;20376;-52
2024/01/02 04:11:41;;;;;;;11.85;6.60;;;;;;;;;;5015975;28;20080;-52
2024/01/02 04:14:06;;;;;;;13.93;6.82;;;;;;;;;;5018579;28;20056;-55
2024/01/02 04:16:31;;;;;;;11.73;6.60;;;;;;;;;;5017234;28;20339;-55
2024/01/02 04:18:57;;;;;;;15.75;8.63;;;;;;;;;;5019179;28;20127;-56
2024/01/02 04:21:22;;;;;;;13.95;7.97;;;;;;;;;;5024732;28;20021;-55
2024/01/02 04:23:47;;;;;;;14.73;8.27;;;;;;;;;;5016028;28;20550;-56
2024/01/02 04:26:12;;;;;;;16.88;8.30;;;;;;;;;;5018639;28;20083;-53
2024/01/02 04:28:38;;;;;;;17.50;7.50;;;;;;;;;;5016923;28;20040;-53
2024/01/02 04:31:04;;;;;;;14.55;8.30;;;;;;;;;;5017214;28;20033;-51
2024/01/02 04:33:29;;;;;;;14.05;7.72;;;;;;;;;;5016505;28;20443;-54
2024/01/02 04:35:54;;;;;;;13.48;7.35;;;;;;;;;;5018148;28;20029;-55
2024/01/02 04:38:19;;;;;;;11.57;6.40;;;;;;;;;;5024434;28;20071;-55
2024/01/02 04:40:45;;;;;;;10.55;6.63;;;;;;;;;;5017263;28;20021;-57
2024/01/02 04:43:10;;;;;;;11.35;7.35;;;;;;;;;;5018313;28;20684;-53
2024/01/02 04:45:35;;;;;;;10.70;6.82;;;;;;;;;;5026833;28;20056;-58
2024/01/02 04:48:00;;;;;;;11.07;6.70;;;;;;;;;;5018645;28;20044;-54
2024/01/02 04:50:26;;;;;;;14.85;7.65;;;;;;;;;;5023380;28;20422;-53
2024/01/02 04:52:51;;;;;;;12.38;6.72;;;;;;;;;;5023082;28;20670;-55
2024/01/02 04:55:16;;;;;;;13.55;7.30;;;;;;;;;;5022595;28;20078;-54
2024/01/02 04:57:41;;;;;;;9.68;6.25;;;;;;;;;;5021559;28;20030;-54
2024/01/02 05:00:07;;;;;;;13.23;7.45;;;;;;;;;;5022267;28;20024;-55
2024/01/02 05:02:32;;;;;;;11.07;6.82;;;;;;;;;;5021833;28;20035;-54
2024/01/02 05:04:57;;;;;;;12.77;6.45;;;;;;;;;;5023046;28;20402;-51
2024/01/02 05:07:23;;;;;;;9.70;5.80;;;;;;;;;;5020194;28;20572;-55
2024/01/02 05:09:48;;;;;;;10.32;6.13;;;;;;;;;;5022095;28;20132;-54
2024/01/02 05:12:15;;;;;;;11.55;6.85;;;;;;;;;;5020036;28;20785;-55
2024/01/02 05:14:40;;;;;;;10.27;6.28;;;;;;;;;;5023166;28;20060;-54
2024/01/02 05:17:07;;;;;;;13.10;6.95;;;;;;;;;;5021634;28;20021;-56
2024/01/02 05:19:33;;;;;;;12.88;7.38;;;;;;;;;;5020896;28;20032;-53
2024/01/02 05:21:58;;;;;;;12.07;6.47;;;;;;;;;;5027864;28;20489;-56
2024/01/02 05:24:23;;;;;;;9.73;6.72;;;;;;;;;;5021174;28;20064;-56
2024/01/02 05:26:49;;;;;;;11.90;6.60;;;;;;;;;;5021360;28;20099;-52
2024/01/02 05:29:14;;;;;;;13.07;6.68;;;;;;;;;;5021730;28;20589;-55
2024/01/02 05:31:39;;;;;;;12.13;7.22;;;;;;;;;;5021555;28;20089;-55
2024/01/02 05:34:04;;;;;;;10.65;6.78;;;;;;;;;;5021153;28;20067;-55
2024/01/02 05:36:30;;;;;;;12.15;7.10;;;;;;;;;;5024105;28;20447;-52
2024/01/02 05:38:55;;;;;;;11.23;6.53;;;;;;;;;;5027418;28;20033;-52
2024/01/02 05:41:20;;;;;;;12.35;6.45;;;;;;;;;;5025220;28;20496;-54
2024/01/02 05:43:46;;;;;;;12.75;6.93;;;;;;;;;;5020737;28;22015;-56
2024/01/02 05:46:11;;;;;;;10.95;6.88;;;;;;;;;;5025681;28;20151;-56
2024/01/02 05:48:36;;;;;;;13.60;7.88;;;;;;;;;;5020833;28;21090;-54
2024/01/02 05:51:03;;;;;;;16.00;7.60;;;;;;;;;;5021226;28;20052;-51
2024/01/02 05:53:29;;;;;;;14.20;7.80;;;;;;;;;;5019760;28;20460;-52
2024/01/02 05:55:54;;;;;;;12.15;6.85;;;;;;;;;;5021390;28;20291;-55
2024/01/02 05:58:19;;;;;;;9.85;6.25;;;;;;;;;;5019227;28;20029;-50
2024/01/02 06:00:44;;;;;;;26.38;10.43;;;;;;;;;;5020464;28;20045;-55
2024/01/02 06:03:10;;;;;;;18.25;8.07;;;;;;;;;;5020832;28;20189;-52
2024/01/02 06:05:35;;;;;;;15.15;8.25;;;;;;;;;;5021051;28;21833;-54
2024/01/02 06:08:00;;;;;;;13.45;7.55;;;;;;;;;;5023969;28;20059;-52
2024/01/02 06:10:25;;;;;;;13.80;7.72;;;;;;;;;;5022444;28;20029;-55
2024/01/02 06:12:51;;;;;;;12.82;8.05;;;;;;;;;;5027430;28;20089;-50
2024/01/02 06:15:16;;;;;;;17.27;9.48;;;;;;;;;;5023910;28;20040;-56
2024/01/02 06:17:41;;;;;;;17.45;9.50;;;;;;;;;;5020207;28;20045;-55
2024/01/02 06:20:09;;;;;;;19.98;9.18;;;;;;;;;;5022362;28;20029;-54
2024/01/02 06:22:34;;;;;;;16.33;8.30;;;;;;;;;;5027199;28;20040;-54
2024/01/02 06:25:00;;;;;;;21.13;10.05;;;;;;;;;;5021143;28;20036;-54
2024/01/02 06:27:25;;;;;;;15.57;9.13;;;;;;;;;;5017864;28;20037;-55
2024/01/02 06:29:50;;;;;;;15.85;9.07;;;;;;;;;;5021060;28;20401;-54
2024/01/02 06:32:16;;;;;;;14.10;8.48;;;;;;;;;;5018653;28;20043;-55
2024/01/02 06:34:41;;;;;;;16.02;8.63;;;;;;;;;;5021939;28;20580;-53
2024/01/02 06:37:06;;;;;;;20.42;8.85;;;;;;;;;;5023391;28;20106;-54
2024/01/02 06:39:31;;;;;;;15.07;8.23;;;;;;;;;;5019106;28;20481;-52
2024/01/02 06:41:57;;;;;;;20.17;9.02;;;;;;;;;;5019106;28;20325;-52
2024/01/02 06:44:22;;;;;;;18.75;9.68;;;;;;;;;;5020425;28;20127;-52
2024/01/02 06:46:47;;;;;;;16.13;9.50;;;;;;;;;;5024134;28;20512;-51
2024/01/02 06:49:13;;;;;;;19.73;10.18;;;;;;;;;;5026118;28;20028;-51
2024/01/02 06:51:38;;;;;;;16.17;9.60;;;;;;;;;;5022989;28;20403;-51
2024/01/02 06:54:03;;;;;;;18.83;9.18;;;;;;;;;;5018820;28;20032;-56
2024/01/02 06:56:28;;;;;;;23.15;11.32;;;;;;;;;;5018107;28;20778;-56
2024/01/02 06:58:54;;;;;;;28.80;13.07;;;;;;;;;;5021561;28;20036;-52
2024/01/02 07:01:19;;;;;;;33.40;14.90;;;;;;;;;;5017323;28;20083;-57
2024/01/02 07:03:44;;;;;;;35.90;15.52;;;;;;;;;;5019445;28;20067;-56
2024/01/02 07:06:10;;;;;;;7.78;4.05;;;;;;;;;;5018431;28;20635;-53
2024/01/02 07:08:35;;;;;;;15.98;7.78;;;;;;;;;;5012629;28;20038;-57
2024/01/02 07:11:01;;;;;;;23.05;12.55;;;;;;;;;;5017271;28;20513;-54
2024/01/02 07:13:26;;;;;;;21.02;11.55;;;;;;;;;;5017563;28;20050;-56
2024/01/02 07:15:51;;;;;;;16.80;9.13;;;;;;;;;;5017966;28;20116;-52
2024/01/02 07:18:16;;;;;;;17.65;9.35;;;;;;;;;;5017931;28;20025;-50
2024/01/02 07:20:42;;;;;;;16.20;8.80;;;;;;;;;;5019653;28;20053;-56
2024/01/02 07:23:07;;;;;;;16.73;7.68;;;;;;;;;;5016950;28;20032;-56
2024/01/02 07:25:32;;;;;;;19.63;9.48;;;;;;;;;;5017646;28;20037;-57
2024/01/02 07:27:58;;;;;;;15.73;8.45;;;;;;;;;;5009675;28;20032;-56
2024/01/02 07:30:23;;;;;;;17.33;8.68;;;;;;;;;;5020138;28;20029;-57
2024/01/02 07:32:49;;;;;;;18.15;8.30;;;;;;;;;;5018057;28;20040;-52
2024/01/02 07:35:14;;;;;;;16.55;8.30;;;;;;;;;;5019771;28;20025;-55
2024/01/02 07:37:40;;;;;;;16.60;8.07;;;;;;;;;;5016743;28;20067;-56
2024/01/02 07:40:07;;;;;;;14.13;7.85;;;;;;;;;;5020592;28;20118;-52
2024/01/02 07:42:32;;;;;;;16.60;8.00;;;;;;;;;;5018428;28;20025;-57
2024/01/02 07:44:57;;;;;;;17.95;9.23;;;;;;;;;;5019435;28;20493;-56
2024/01/02 07:47:22;;;;;;;24.52;10.05;;;;;;;;;;5019400;28;20493;-53
2024/01/02 07:49:48;;;;;;;18.65;8.32;;;;;;;;;;5033039;28;20299;-55
2024/01/02 07:52:13;;;;;;;10.85;5.63;;;;;;;;;;5016917;28;20036;-58
2024/01/02 07:54:38;;;;;;;10.90;4.72;;;;;;;;;;5015964;28;20040;-57
2024/01/02 07:57:04;;;;;;;11.63;6.20;;;;;;;;;;5009465;28;20082;-57
2024/01/02 07:59:29;;;;;;;8.80;4.70;;;;;;;;;;5017126;28;20060;-57
2024/01/02 08:01:54;;;;;;;9.32;5.55;;;;;;;;;;5018887;28;20143;-57
2024/01/02 08:04:20;;;;;;;9.32;5.28;;;;;;;;;;5018744;28;20513;-54
2024/01/02 08:06:45;;;;;;;13.13;4.88;;;;;;;;;;5017014;28;20037;-57
2024/01/02 08:09:10;;;;;;;8.65;4.53;;;;;;;;;;5021007;28;20041;-53
2024/01/02 08:11:37;;;;;;;9.10;4.35;;;;;;;;;;5063539;27;20060;-53
2024/01/02 08:14:02;;;;;;;8.63;5.10;;;;;;;;;;5019618;28;20044;-54
2024/01/02 08:16:28;;;;;;;10.38;4.88;;;;;;;;;;5015097;28;20431;-53
2024/01/02 08:18:53;;;;;;;7.57;4.20;;;;;;;;;;5018645;28;20321;-54
2024/01/02 08:21:18;;;;;;;7.57;3.85;;;;;;;;;;5014216;28;20421;-53
2024/01/02 08:23:44;;;;;;;10.32;4.50;;;;;;;;;;5020100;28;20025;-53
2024/01/02 08:26:13;;;;;;;7.95;3.70;;;;;;;;;;5029859;28;20088;-50
2024/01/02 08:28:38;;;;;;;10.23;4.38;;;;;;;;;;5030253;28;20052;-54
2024/01/02 08:31:03;;;;;;;9.40;4.30;;;;;;;;;;5018720;28;20486;-53
2024/01/02 08:33:29;;;;;;;6.00;3.78;;;;;;;;;;5016420;28;20392;-54
2024/01/02 08:35:54;;;;;;;4.72;3.33;;;;;;;;;;5024486;28;20025;-56
2024/01/02 08:38:20;;;;;;;6.13;3.00;;;;;;;;;;5016616;28;20556;-54
2024/01/02 08:40:45;;;;;;;7.82;3.83;;;;;;;;;;5017176;28;20421;-54
2024/01/02 08:43:11;;;;;;;5.03;3.15;;;;;;;;;;5016981;28;20664;-59
2024/01/02 08:45:36;;;;;;;5.40;3.25;;;;;;;;;;5022214;28;20025;-53
2024/01/02 08:48:01;;;;;;;6.80;3.00;;;;;;;;;;5016305;28;20164;-59
2024/01/02 08:50:29;;;;;;;5.88;3.00;;;;;;;;;;5015477;28;20886;-56
2024/01/02 08:52:54;;;;;;;5.78;3.00;;;;;;;;;;5016760;28;20040;-51
2024/01/02 08:55:19;;;;;;;5.15;3.20;;;;;;;;;;5014233;28;20021;-52
2024/01/02 08:57:45;;;;;;;4.53;3.13;;;;;;;;;;5012940;28;20029;-56
2024/01/02 09:00:14;;;;;;;10.65;7.60;;;;;;;;;;5014296;28;20167;-59
2024/01/02 09:02:40;;;;;;;7.22;4.40;;;;;;;;;;5014591;28;20044;-52
2024/01/02 09:05:05;;;;;;;5.30;3.60;;;;;;;;;;5015883;28;20017;-49
2024/01/02 09:07:31;;;;;;;9.35;4.30;;;;;;;;;;4994578;28;20037;-48
2024/01/02 09:09:56;;;;;;;5.53;3.67;;;;;;;;;;5019233;28;20059;-52
2024/01/02 09:12:21;;;;;;;6.30;2.63;;;;;;;;;;5013655;28;20041;-54
2024/01/02 09:14:47;;;;;;;3.80;2.17;;;;;;;;;;4999458;28;20286;-53
2024/01/02 09:17:12;;;;;;;9.50;2.47;;;;;;;;;;5012397;28;20262;-57
2024/01/02 09:19:37;;;;;;;4.45;2.67;;;;;;;;;;5011922;28;20973;-58
2024/01/02 09:22:03;;;;;;;4.30;2.30;;;;;;;;;;5010074;28;20029;-56
2024/01/02 09:24:28;;;;;;;3.95;2.55;;;;;;;;;;5011648;28;21017;-55
2024/01/02 09:26:55;;;;;;;4.90;2.70;;;;;;;;;;5011526;28;20035;-54
2024/01/02 09:29:23;;;;;;;7.05;2.92;;;;;;;;;;5016060;28;20258;-55
2024/01/02 09:31:48;;;;;;;6.40;3.90;;;;;;;;;;5013317;28;20571;-52
2024/01/02 09:34:13;;;;;;;7.43;4.10;;;;;;;;;;5014135;28;20029;-55
2024/01/02 09:36:39;;;;;;;14.53;4.80;;;;;;;;;;5012758;28;20044;-56
2024/01/02 09:39:04;;;;;;;9.13;4.13;;;;;;;;;;5015919;28;20328;-48
2024/01/02 09:41:38;;;;;;;6.53;3.03;;;;;;;;;;5016647;28;20056;-57
2024/01/02 09:44:04;;;;;;;11.27;4.18;;;;;;;;;;5018355;28;20043;-52
2024/01/02 09:46:35;;;;;;;6.40;3.63;;;;;;;;;;5018289;28;20028;-54
2024/01/02 09:49:22;;;;;;;8.55;3.50;;;;;;;;;;5017983;28;20261;-54
2024/01/02 09:51:53;;;;;;;10.02;3.22;;;;;;;;;;5023367;28;20398;-52
2024/01/02 09:54:34;;;;;;;8.95;3.80;;;;;;;;;;5017963;28;20071;-55
2024/01/02 09:57:06;;;;;;;7.82;3.53;;;;;;;;;;5021813;28;20024;-53
2024/01/02 09:59:51;;;;;;;3.30;1.92;;;;;;;;;;5018944;28;20032;-47
2024/01/02 10:02:36;;;;;;;19.63;5.63;;;;;;;;;;5019917;28;20037;-52
2024/01/02 10:05:30;;;;;;;3.40;2.30;;;;;;;;;;5018830;28;20037;-58
2024/01/02 10:07:55;;;;;;;3.42;1.67;;;;;;;;;;4979624;28;20547;-60
2024/01/02 10:10:20;;;;;;;12.40;2.30;;;;;;;;;;4981463;28;20029;-58
2024/01/02 10:12:59;;;;;;;2.87;1.40;;;;;;;;;;4979617;28;20760;-59
2024/01/02 10:15:34;;;;;;;9.80;2.45;;;;;;;;;;4982863;28;20286;-64
2024/01/02 10:18:11;;;;;;;5.63;1.45;;;;;;;;;;4983711;28;20040;-61
2024/01/02 10:20:55;;;;;;;1.17;0.95;;;;;;;;;;4983916;28;20299;-61
2024/01/02 10:23:27;;;;;;;9.35;1.58;;;;;;;;;;4980094;28;20112;-60
2024/01/02 10:25:53;;;;;;;2.25;1.38;;;;;;;;;;4988698;28;20084;-61
2024/01/02 10:28:19;;;;;;;4.90;1.60;;;;;;;;;;4982293;28;20029;-62
2024/01/02 10:31:02;;;;;;;3.35;1.92;;;;;;;;;;4983618;28;20109;-61
2024/01/02 10:33:27;;;;;;;6.97;1.98;;;;;;;;;;4982504;28;20033;-61
2024/01/02 10:35:58;;;;;;;2.85;1.20;;;;;;;;;;4983112;28;20493;-48
2024/01/02 10:38:42;;;;;;;10.68;1.70;;;;;;;;;;4996603;28;20439;-53
2024/01/02 10:41:13;;;;;;;5.65;1.13;;;;;;;;;;4960603;28;20034;-53
2024/01/02 10:43:53;;;;;;;4.63;1.25;;;;;;;;;;4991998;28;20044;-54
2024/01/02 10:46:30;;;;;;;3.15;1.30;;;;;;;;;;5083866;27;20064;-53
2024/01/02 10:49:12;;;;;;;4.43;1.40;;;;;;;;;;5020723;28;20065;-56
2024/01/02 10:51:37;;;;;;;6.35;1.60;;;;;;;;;;5018379;28;20053;-56
2024/01/02 10:54:05;;;;;;;5.15;1.50;;;;;;;;;;5017500;28;20064;-54
2024/01/02 10:56:49;;;;;;;5.35;2.50;;;;;;;;;;5017930;28;20161;-56
2024/01/02 10:59:15;;;;;;;2.63;1.40;;;;;;;;;;5019590;28;20121;-53
2024/01/02 11:01:44;;;;;;;10.38;2.10;;;;;;;;;;5049169;28;20029;-53
2024/01/02 11:04:16;;;;;;;7.25;1.58;;;;;;;;;;5018853;28;20029;-53
2024/01/02 11:06:45;;;;;;;3.47;1.30;;;;;;;;;;5016751;28;20045;-55
2024/01/02 11:09:34;;;;;;;4.43;2.10;;;;;;;;;;5018802;28;20029;-59
2024/01/02 11:12:03;;;;;;;5.68;1.85;;;;;;;;;;5015982;28;20061;-57
2024/01/02 11:14:29;;;;;;;10.75;2.15;;;;;;;;;;5018343;28;20041;-54
2024/01/02 11:16:56;;;;;;;4.97;2.17;;;;;;;;;;5017715;28;20344;-57
2024/01/02 11:19:26;;;;;;;10.35;2.22;;;;;;;;;;5018336;28;20109;-53
2024/01/02 11:21:57;;;;;;;2.92;1.60;;;;;;;;;;5028579;28;20033;-55
2024/01/02 11:24:24;;;;;;;4.68;1.55;;;;;;;;;;5019640;28;20518;-55
2024/01/02 11:26:51;;;;;;;11.80;1.92;;;;;;;;;;5017616;28;20083;-55
2024/01/02 11:29:21;;;;;;;3.90;1.52;;;;;;;;;;5019037;28;20359;-53
2024/01/02 11:31:48;;;;;;;5.88;1.77;;;;;;;;;;5017893;28;20148;-56
2024/01/02 11:34:13;;;;;;;13.93;2.08;;;;;;;;;;5016776;28;20064;-55
2024/01/02 11:36:47;;;;;;;7.55;1.80;;;;;;;;;;5032486;28;20041;-55
2024/01/02 11:39:13;;;;;;;6.70;1.77;;;;;;;;;;5021499;28;20033;-54
2024/01/02 11:41:45;;;;;;;3.33;1.90;;;;;;;;;;5016305;28;20098;-55
2024/01/02 11:44:23;;;;;;;7.45;2.65;;;;;;;;;;5018871;28;20037;-50
2024/01/02 11:46:53;;;;;;;6.10;2.35;;;;;;;;;;5020345;28;20536;-51
2024/01/02 11:49:22;;;;;;;14.38;3.92;;;;;;;;;;5021701;28;20090;-51
2024/01/02 11:51:47;;;;;;;;;;;;;;;;;;5015092;28;20405;-55
2024/01/02 11:54:31;;;;;;;5.82;1.73;;;;;;;;;;5015639;28;19947;-52
2024/01/02 11:56:57;;;;;;;4.18;2.50;;;;;;;;;;5015326;28;20052;-47
2024/01/02 11:59:28;;;;;;;3.42;1.75;;;;;;;;;;5017757;28;20463;-60
2024/01/02 12:02:01;;;;;;;7.53;2.08;;;;;;;;;;5016495;28;20442;-50
2024/01/02 12:04:41;;;;;;;3.70;1.60;;;;;;;;;;5017598;28;20043;-54
2024/01/02 12:07:21;;;;;;;7.72;3.40;;;;;;;;;;5017479;28;20588;-54
2024/01/02 12:09:48;;;;;;;3.25;2.00;;;;;;;;;;5019029;28;20528;-53
2024/01/02 12:12:23;;;;;;;6.28;3.10;;;;;;;;;;5018878;28;20075;-50
2024/01/02 12:14:48;;;;;;;6.57;1.73;;;;;;;;;;5015562;28;20142;-50
2024/01/02 12:17:16;;;;;;;5.75;1.77;;;;;;;;;;5014594;28;20112;-52
2024/01/02 12:19:43;;;;;;;2.50;1.08;;;;;;;;;;5016556;28;20311;-52
2024/01/02 12:22:10;;;;;;;14.13;2.40;;;;;;;;;;5015347;28;20040;-50
2024/01/02 12:24:36;;;;;;;3.00;1.25;;;;;;;;;;5016516;28;20293;-49
2024/01/02 12:27:03;;;;;;;3.40;1.58;;;;;;;;;;5014306;28;21412;-52
2024/01/02 12:29:48;;;;;;;4.05;1.25;;;;;;;;;;5000980;28;20104;-48
2024/01/02 12:32:19;;;;;;;3.15;2.15;;;;;;;;;;5014314;28;20121;-49
2024/01/02 12:34:52;;;;;;;5.15;2.15;;;;;;;;;;5015526;28;20084;-53
2024/01/02 12:37:21;;;;;;;4.82;1.65;;;;;;;;;;5015437;28;20116;-52
2024/01/02 12:39:48;;;;;;;3.88;1.75;;;;;;;;;;5024251;28;20438;-53
2024/01/02 12:42:16;;;;;;;2.92;1.42;;;;;;;;;;5015403;28;20043;-49
2024/01/02 12:44:45;;;;;;;14.40;1.98;;;;;;;;;;5016724;28;20032;-50
2024/01/02 12:47:12;;;;;;;12.98;2.10;;;;;;;;;;5023384;28;20052;-48
2024/01/02 12:49:46;;;;;;;7.88;1.73;;;;;;;;;;5016219;28;20040;-48
2024/01/02 12:52:15;;;;;;;9.77;3.05;;;;;;;;;;5016685;28;20908;-50
2024/01/02 12:54:43;;;;;;;12.55;2.97;;;;;;;;;;5017733;28;20035;-51
2024/01/02 12:57:09;;;;;;;7.43;2.17;;;;;;;;;;5080283;27;20222;-52
2024/01/02 12:59:36;;;;;;;6.00;2.00;;;;;;;;;;5016569;28;20489;-51
2024/01/02 13:02:05;;;;;;;4.03;1.70;;;;;;;;;;5016515;28;20112;-51
2024/01/02 13:04:30;;;;;;;6.55;1.70;;;;;;;;;;5015840;28;20190;-51
2024/01/02 13:06:56;;;;;;;8.30;2.20;;;;;;;;;;5018808;28;20781;-51
2024/01/02 13:09:23;;;;;;;5.40;1.92;;;;;;;;;;5016415;28;20060;-50
2024/01/02 13:11:49;;;;;;;15.10;5.47;;;;;;;;;;5018862;28;20497;-53
2024/01/02 13:14:14;;;;;;;8.80;2.80;;;;;;;;;;5039316;28;20111;-53
2024/01/02 13:16:40;;;;;;;12.40;2.80;;;;;;;;;;5020180;28;20358;-46
2024/01/02 13:19:06;;;;;;;13.98;4.25;;;;;;;;;;5021042;28;20108;-51
2024/01/02 13:21:31;;;;;;;12.70;4.57;;;;;;;;;;5033665;28;20133;-47
2024/01/02 13:23:57;;;;;;;16.45;6.28;;;;;;;;;;5019775;28;20477;-53
2024/01/02 13:26:24;;;;;;;2.65;2.03;;;;;;;;;;5018525;28;20802;-60
2024/01/02 13:28:50;;;;;;;6.50;2.05;;;;;;;;;;5025236;28;20324;-60
2024/01/02 13:31:33;;;;;;;5.07;2.05;;;;;;;;;;5020928;28;20308;-60
2024/01/02 13:33:58;;;;;;;5.18;2.38;;;;;;;;;;5021267;28;20032;-52
2024/01/02 13:36:27;;;;;;;6.18;2.85;;;;;;;;;;5021211;28;20033;-48
2024/01/02 13:38:53;;;;;;;7.63;3.03;;;;;;;;;;5016566;28;20060;-52
2024/01/02 13:41:19;;;;;;;15.65;3.20;;;;;;;;;;5019713;28;20048;-50
2024/01/02 13:43:45;;;;;;;6.00;2.75;;;;;;;;;;5012344;28;20048;-50
2024/01/02 13:46:14;;;;;;;6.30;2.88;;;;;;;;;;5023817;28;20029;-53
2024/01/02 13:48:39;;;;;;;;;;;;;;;;;;5021679;28;20029;-55
2024/01/02 13:51:08;;;;;;;8.53;3.30;;;;;;;;;;5023553;28;20429;-52
2024/01/02 13:53:52;;;;;;;12.00;4.03;;;;;;;;;;5018905;28;20041;-52
2024/01/02 13:56:17;;;;;;;11.75;4.90;;;;;;;;;;5018466;28;20082;-49
2024/01/02 13:58:54;;;;;;;7.85;3.05;;;;;;;;;;5038011;28;20062;-54
2024/01/02 14:01:30;;;;;;;13.65;3.17;;;;;;;;;;5020877;28;20052;-55
2024/01/02 14:03:55;;;;;;;14.50;4.82;;;;;;;;;;5020031;28;20029;-51
2024/01/02 14:06:22;;;;;;;9.82;4.28;;;;;;;;;;5015613;28;20523;-55
2024/01/02 14:08:47;;;;;;;16.17;4.22;;;;;;;;;;5017362;28;20408;-55
2024/01/02 14:11:12;;;;;;;7.85;3.95;;;;;;;;;;5016781;28;20056;-55
2024/01/02 14:13:38;;;;;;;11.93;5.97;;;;;;;;;;5017608;28;20037;-50
2024/01/02 14:16:08;;;;;;;16.55;7.15;;;;;;;;;;5020452;28;20036;-61
2024/01/02 14:18:37;;;;;;;14.93;5.95;;;;;;;;;;5019778;28;20090;-62
2024/01/02 14:21:11;;;;;;;16.45;8.18;;;;;;;;;;5020116;28;20375;-60
2024/01/02 14:23:39;;;;;;;15.63;6.03;;;;;;;;;;5017090;28;20033;-59
2024/01/02 14:26:04;;;;;;;12.77;6.63;;;;;;;;;;5021295;28;20025;-58
2024/01/02 14:28:34;;;;;;;7.23;3.97;;;;;;;;;;5019289;28;20032;-56
2024/01/02 14:30:59;;;;;;;;;;;;;;;;;;5021136;28;20281;-56
2024/01/02 14:33:24;;;;;;;11.10;5.37;;;;;;;;;;5019124;28;19921;-58
2024/01/02 14:36:14;;;;;;;13.95;5.85;;;;;;;;;;5022781;28;20037;-59
2024/01/02 14:38:50;;;;;;;11.48;4.80;;;;;;;;;;5015261;28;20107;-60